createdAt,value
2023-01-13T00:01:35.803Z,68.03
2023-01-13T00:11:38.906Z,67.69
2023-01-13T00:21:43.969Z,67.79
2023-01-13T00:31:47.145Z,67.75
2023-01-13T00:42:09.206Z,68.23
2023-01-13T00:52:12.958Z,68.51
2023-01-13T01:02:17.458Z,69.03
2023-01-13T01:12:20.725Z,68.27
2023-01-13T01:22:25.212Z,68.51
2023-01-13T01:32:28.332Z,67.83
2023-01-13T01:42:50.453Z,68.08
2023-01-13T01:52:56.791Z,67.60
2023-01-13T02:03:02.052Z,68.16
2023-01-13T02:13:07.168Z,68.03
2023-01-13T02:24:01.813Z,68.01
2023-01-13T02:34:09.566Z,67.60
2023-01-13T02:44:13.951Z,67.86
2023-01-13T02:54:20.670Z,67.81
2023-01-13T03:04:50.175Z,67.29
2023-01-13T03:14:57.849Z,67.68
2023-01-13T03:25:07.347Z,67.12
2023-01-13T03:35:16.233Z,66.83
2023-01-13T03:45:20.238Z,67.22
2023-01-13T03:55:29.572Z,67.06
2023-01-13T04:05:35.347Z,67.58
2023-01-13T04:15:41.147Z,67.54
2023-01-13T04:25:44.806Z,67.72
2023-01-13T04:35:49.600Z,67.76
2023-01-13T04:45:52.805Z,67.72
2023-01-13T04:55:57.384Z,68.66
2023-01-13T05:06:00.535Z,69.57
2023-01-13T05:16:19.321Z,68.48
2023-01-13T05:26:24.280Z,69.00
2023-01-13T05:36:28.788Z,68.77
2023-01-13T05:46:31.993Z,68.53
2023-01-13T05:56:36.518Z,68.29
2023-01-13T06:06:39.746Z,67.87
2023-01-13T06:16:45.477Z,68.12
2023-01-13T06:26:49.131Z,70.50
2023-01-13T06:36:55.162Z,68.97
2023-01-13T06:46:58.370Z,69.25
2023-01-13T06:57:03.013Z,68.51
2023-01-13T07:07:07.785Z,68.14
2023-01-13T07:17:12.252Z,67.92
2023-01-13T07:27:15.463Z,68.60
2023-01-13T07:37:23.940Z,68.50
2023-01-13T07:47:27.520Z,68.86
2023-01-13T07:57:32.036Z,68.56
2023-01-13T08:07:35.255Z,68.31
2023-01-13T08:17:41.061Z,67.96
2023-01-13T08:27:44.148Z,67.75
2023-01-13T08:37:49.057Z,67.43
2023-01-13T08:47:52.168Z,69.73
2023-01-13T08:58:14.084Z,68.29
2023-01-13T09:08:22.273Z,67.67
2023-01-13T09:18:27.564Z,68.03
2023-01-13T09:28:31.080Z,67.93
2023-01-13T09:38:39.298Z,67.71
2023-01-13T09:48:52.793Z,68.35
2023-01-13T09:58:57.353Z,65.43
2023-01-13T10:09:00.722Z,65.56
2023-01-13T10:19:15.344Z,65.36
2023-01-13T10:29:21.760Z,64.80
2023-01-13T10:39:26.536Z,64.60
2023-01-13T10:49:33.796Z,63.18
2023-01-13T10:59:38.687Z,63.67
2023-01-13T11:09:42.515Z,65.36
2023-01-13T11:19:51.926Z,66.10
2023-01-13T11:30:01.299Z,63.88
2023-01-13T11:40:13.533Z,64.31
2023-01-13T11:50:26.190Z,64.98
2023-01-13T12:00:38.940Z,64.90
2023-01-13T12:10:49.095Z,65.18
2023-01-13T12:21:03.855Z,66.23
2023-01-13T12:31:07.503Z,64.94
2023-01-13T12:41:17.645Z,64.20
2023-01-13T12:51:26.294Z,64.51
2023-01-13T13:01:37.533Z,63.25
2023-01-13T13:12:02.077Z,63.54
2023-01-13T13:22:46.065Z,62.36
2023-01-13T13:33:00.605Z,62.48
2023-01-13T13:43:24.074Z,63.19
2023-01-13T13:53:29.183Z,62.69
2023-01-13T14:03:37.777Z,64.09
2023-01-13T14:13:42.053Z,63.76
2023-01-13T14:23:51.709Z,63.16
2023-01-13T14:33:57.046Z,63.37
2023-01-13T14:44:03.302Z,63.14
2023-01-13T14:54:46.750Z,63.66
2023-01-13T15:04:54.099Z,63.38
2023-01-13T15:14:57.765Z,63.41
2023-01-13T15:25:02.190Z,63.75
2023-01-13T15:35:05.919Z,63.49
2023-01-13T15:45:31.488Z,63.58
2023-01-13T15:55:36.453Z,63.07
2023-01-13T16:05:40.878Z,64.44
2023-01-13T16:15:45.628Z,65.44
2023-01-13T16:25:51.032Z,65.61
2023-01-13T16:36:12.111Z,65.91
2023-01-13T16:46:22.980Z,65.20
2023-01-13T16:56:28.123Z,66.22
2023-01-13T17:06:34.219Z,66.14
2023-01-13T17:16:42.828Z,65.91
2023-01-13T17:26:49.383Z,65.58
2023-01-13T17:36:52.629Z,65.59
2023-01-13T17:46:57.194Z,65.74
2023-01-13T17:57:00.415Z,65.51
2023-01-13T18:07:05.803Z,65.43
2023-01-13T18:17:09.092Z,65.47
2023-01-13T18:27:23.677Z,65.93
2023-01-13T18:37:29.200Z,65.50
2023-01-13T18:47:39.180Z,65.90
2023-01-13T18:57:43.346Z,65.61
2023-01-13T19:07:50.962Z,65.54
2023-01-13T19:17:54.473Z,65.71
2023-01-13T19:27:59.787Z,65.39
2023-01-13T19:38:03.112Z,65.81
2023-01-13T19:48:09.564Z,65.57
2023-01-13T19:58:12.919Z,65.82
2023-01-13T20:08:17.832Z,65.42
2023-01-13T20:18:21.157Z,65.33
2023-01-13T20:28:26.968Z,65.54
2023-01-13T20:38:36.026Z,65.95
2023-01-13T20:48:40.971Z,66.32
2023-01-13T20:58:45.118Z,70.08
2023-01-13T21:08:49.832Z,69.52
2023-01-13T21:19:08.140Z,69.26
2023-01-13T21:29:12.644Z,69.30
2023-01-13T21:39:16.115Z,74.49
2023-01-13T21:49:20.704Z,70.40
2023-01-13T21:59:23.858Z,69.31
2023-01-13T22:09:28.679Z,68.93
2023-01-13T22:19:32.207Z,68.26
2023-01-13T22:29:37.817Z,68.82
2023-01-13T22:39:41.035Z,69.06
2023-01-13T22:49:47.779Z,70.74
2023-01-13T22:59:51.027Z,68.66
2023-01-13T23:09:55.464Z,71.08
2023-01-13T23:19:58.626Z,68.04
2023-01-13T23:30:03.149Z,68.74
2023-01-13T23:40:09.465Z,68.63
2023-01-13T23:50:15.030Z,69.57
